sensor_id;sensor_type;location;lat;lon;timestamp;temperature;humidity
71254;HTU21D;59019;47.638;18.966;2023-08-01T00:00:31;15.04;98.97
71254;HTU21D;59019;47.638;18.966;2023-08-01T00:02:57;14.95;98.88
71254;HTU21D;59019;47.638;18.966;2023-08-01T00:05:23;14.93;99.16
71254;HTU21D;59019;47.638;18.966;2023-08-01T00:07:48;14.91;98.67
71254;HTU21D;59019;47.638;18.966;2023-08-01T00:10:14;14.87;99.00
71254;HTU21D;59019;47.638;18.966;2023-08-01T00:12:41;14.86;99.05
71254;HTU21D;59019;47.638;18.966;2023-08-01T00:15:07;14.82;99.66
71254;HTU21D;59019;47.638;18.966;2023-08-01T00:17:33;14.86;99.75
71254;HTU21D;59019;47.638;18.966;2023-08-01T00:20:01;14.78;99.23
71254;HTU21D;59019;47.638;18.966;2023-08-01T00:22:26;14.73;99.80
71254;HTU21D;59019;47.638;18.966;2023-08-01T00:24:52;14.79;99.78
71254;HTU21D;59019;47.638;18.966;2023-08-01T00:27:17;14.81;99.90
71254;HTU21D;59019;47.638;18.966;2023-08-01T00:29:43;14.81;99.94
71254;HTU21D;59019;47.638;18.966;2023-08-01T00:32:08;14.77;100.13
71254;HTU21D;59019;47.638;18.966;2023-08-01T00:34:34;14.75;100.54
71254;HTU21D;59019;47.638;18.966;2023-08-01T00:36:59;14.78;101.01
71254;HTU21D;59019;47.638;18.966;2023-08-01T00:39:25;14.78;101.60
71254;HTU21D;59019;47.638;18.966;2023-08-01T00:41:51;14.83;101.50
71254;HTU21D;59019;47.638;18.966;2023-08-01T00:44:16;14.71;101.09
71254;HTU21D;59019;47.638;18.966;2023-08-01T00:46:42;14.77;101.23
71254;HTU21D;59019;47.638;18.966;2023-08-01T00:49:08;14.82;101.17
71254;HTU21D;59019;47.638;18.966;2023-08-01T00:51:34;14.82;101.89
71254;HTU21D;59019;47.638;18.966;2023-08-01T00:54:00;14.88;101.22
71254;HTU21D;59019;47.638;18.966;2023-08-01T00:56:26;14.86;102.10
71254;HTU21D;59019;47.638;18.966;2023-08-01T00:58:51;14.94;101.71
71254;HTU21D;59019;47.638;18.966;2023-08-01T01:01:17;14.95;101.78
71254;HTU21D;59019;47.638;18.966;2023-08-01T01:03:42;14.92;102.10
71254;HTU21D;59019;47.638;18.966;2023-08-01T01:06:21;14.97;101.80
71254;HTU21D;59019;47.638;18.966;2023-08-01T01:08:49;15.08;101.91
71254;HTU21D;59019;47.638;18.966;2023-08-01T01:11:15;15.02;102.23
71254;HTU21D;59019;47.638;18.966;2023-08-01T01:13:41;15.01;102.51
71254;HTU21D;59019;47.638;18.966;2023-08-01T01:16:06;15.01;102.53
71254;HTU21D;59019;47.638;18.966;2023-08-01T01:18:32;15.07;102.08
71254;HTU21D;59019;47.638;18.966;2023-08-01T01:20:57;15.11;102.39
71254;HTU21D;59019;47.638;18.966;2023-08-01T01:23:24;15.09;102.33
71254;HTU21D;59019;47.638;18.966;2023-08-01T01:25:51;15.11;102.66
71254;HTU21D;59019;47.638;18.966;2023-08-01T01:28:18;15.15;102.33
71254;HTU21D;59019;47.638;18.966;2023-08-01T01:30:44;15.21;101.96
71254;HTU21D;59019;47.638;18.966;2023-08-01T01:33:11;15.17;102.98
71254;HTU21D;59019;47.638;18.966;2023-08-01T01:35:37;15.17;103.68
71254;HTU21D;59019;47.638;18.966;2023-08-01T01:38:02;15.22;103.50
71254;HTU21D;59019;47.638;18.966;2023-08-01T01:40:32;15.26;103.15
71254;HTU21D;59019;47.638;18.966;2023-08-01T01:42:59;15.22;103.13
71254;HTU21D;59019;47.638;18.966;2023-08-01T01:45:25;15.22;103.55
71254;HTU21D;59019;47.638;18.966;2023-08-01T01:47:51;15.27;103.63
71254;HTU21D;59019;47.638;18.966;2023-08-01T01:50:16;15.29;103.01
71254;HTU21D;59019;47.638;18.966;2023-08-01T01:52:43;15.24;103.30
71254;HTU21D;59019;47.638;18.966;2023-08-01T01:55:09;15.26;103.06
71254;HTU21D;59019;47.638;18.966;2023-08-01T01:57:35;15.21;103.38
71254;HTU21D;59019;47.638;18.966;2023-08-01T02:00:03;15.17;102.65
71254;HTU21D;59019;47.638;18.966;2023-08-01T02:02:29;15.14;103.20
71254;HTU21D;59019;47.638;18.966;2023-08-01T02:04:54;15.17;102.71
71254;HTU21D;59019;47.638;18.966;2023-08-01T02:07:20;15.17;103.08
71254;HTU21D;59019;47.638;18.966;2023-08-01T02:09:45;15.13;103.05
71254;HTU21D;59019;47.638;18.966;2023-08-01T02:12:12;15.08;102.74
71254;HTU21D;59019;47.638;18.966;2023-08-01T02:14:40;15.09;102.64
71254;HTU21D;59019;47.638;18.966;2023-08-01T02:17:05;15.07;101.86
71254;HTU21D;59019;47.638;18.966;2023-08-01T02:19:31;15.02;102.57
71254;HTU21D;59019;47.638;18.966;2023-08-01T02:21:57;15.02;102.76
71254;HTU21D;59019;47.638;18.966;2023-08-01T02:24:23;15.07;102.61
71254;HTU21D;59019;47.638;18.966;2023-08-01T02:26:49;15.10;101.97
71254;HTU21D;59019;47.638;18.966;2023-08-01T02:29:15;15.00;102.08
71254;HTU21D;59019;47.638;18.966;2023-08-01T02:31:40;15.03;102.06
71254;HTU21D;59019;47.638;18.966;2023-08-01T02:34:06;14.98;101.77
71254;HTU21D;59019;47.638;18.966;2023-08-01T02:36:31;14.96;101.74
71254;HTU21D;59019;47.638;18.966;2023-08-01T02:38:56;14.99;101.71
71254;HTU21D;59019;47.638;18.966;2023-08-01T02:41:22;14.93;101.83
71254;HTU21D;59019;47.638;18.966;2023-08-01T02:43:48;14.87;102.15
71254;HTU21D;59019;47.638;18.966;2023-08-01T02:46:13;14.85;101.97
71254;HTU21D;59019;47.638;18.966;2023-08-01T02:48:38;14.79;102.59
71254;HTU21D;59019;47.638;18.966;2023-08-01T02:51:04;14.77;102.37
71254;HTU21D;59019;47.638;18.966;2023-08-01T02:53:31;14.73;102.90
71254;HTU21D;59019;47.638;18.966;2023-08-01T02:55:56;14.78;103.40
71254;HTU21D;59019;47.638;18.966;2023-08-01T02:58:22;14.80;103.34
71254;HTU21D;59019;47.638;18.966;2023-08-01T03:00:47;14.78;104.45
71254;HTU21D;59019;47.638;18.966;2023-08-01T03:03:13;14.80;104.76
71254;HTU21D;59019;47.638;18.966;2023-08-01T03:05:38;14.77;105.60
71254;HTU21D;59019;47.638;18.966;2023-08-01T03:08:04;14.72;105.88
71254;HTU21D;59019;47.638;18.966;2023-08-01T03:10:30;14.66;106.47
71254;HTU21D;59019;47.638;18.966;2023-08-01T03:12:56;14.71;106.72
71254;HTU21D;59019;47.638;18.966;2023-08-01T03:15:21;14.63;107.52
71254;HTU21D;59019;47.638;18.966;2023-08-01T03:17:47;14.49;109.96
71254;HTU21D;59019;47.638;18.966;2023-08-01T03:20:12;14.44;110.63
71254;HTU21D;59019;47.638;18.966;2023-08-01T03:22:38;14.43;112.81
71254;HTU21D;59019;47.638;18.966;2023-08-01T03:25:05;14.51;113.83
71254;HTU21D;59019;47.638;18.966;2023-08-01T03:27:36;14.62;115.38
71254;HTU21D;59019;47.638;18.966;2023-08-01T03:30:02;14.77;112.25
71254;HTU21D;59019;47.638;18.966;2023-08-01T03:32:30;14.88;109.28
71254;HTU21D;59019;47.638;18.966;2023-08-01T03:34:56;14.92;109.70
71254;HTU21D;59019;47.638;18.966;2023-08-01T03:37:22;15.04;110.95
71254;HTU21D;59019;47.638;18.966;2023-08-01T03:39:49;15.22;110.11
71254;HTU21D;59019;47.638;18.966;2023-08-01T03:42:14;15.39;108.06
71254;HTU21D;59019;47.638;18.966;2023-08-01T03:44:40;15.60;106.24
71254;HTU21D;59019;47.638;18.966;2023-08-01T03:47:06;15.69;102.73
71254;HTU21D;59019;47.638;18.966;2023-08-01T03:49:32;15.74;100.87
71254;HTU21D;59019;47.638;18.966;2023-08-01T03:51:57;15.80;100.71
71254;HTU21D;59019;47.638;18.966;2023-08-01T03:54:23;15.80;100.24
71254;HTU21D;59019;47.638;18.966;2023-08-01T03:56:48;15.89;100.09
71254;HTU21D;59019;47.638;18.966;2023-08-01T03:59:15;15.96;99.36
71254;HTU21D;59019;47.638;18.966;2023-08-01T04:01:41;16.02;99.11
71254;HTU21D;59019;47.638;18.966;2023-08-01T04:04:08;16.00;99.26
71254;HTU21D;59019;47.638;18.966;2023-08-01T04:06:33;16.00;99.85
71254;HTU21D;59019;47.638;18.966;2023-08-01T04:08:59;16.05;100.29
71254;HTU21D;59019;47.638;18.966;2023-08-01T04:11:25;16.03;100.41
71254;HTU21D;59019;47.638;18.966;2023-08-01T04:13:52;16.10;100.64
71254;HTU21D;59019;47.638;18.966;2023-08-01T04:16:17;16.10;100.85
71254;HTU21D;59019;47.638;18.966;2023-08-01T04:18:43;16.17;100.68
71254;HTU21D;59019;47.638;18.966;2023-08-01T04:21:08;16.21;100.35
71254;HTU21D;59019;47.638;18.966;2023-08-01T04:23:34;16.10;100.12
71254;HTU21D;59019;47.638;18.966;2023-08-01T04:25:59;16.01;100.74
71254;HTU21D;59019;47.638;18.966;2023-08-01T04:28:25;16.13;100.18
71254;HTU21D;59019;47.638;18.966;2023-08-01T04:30:52;16.22;100.28
71254;HTU21D;59019;47.638;18.966;2023-08-01T04:33:18;16.37;100.41
71254;HTU21D;59019;47.638;18.966;2023-08-01T04:35:43;16.57;100.42
71254;HTU21D;59019;47.638;18.966;2023-08-01T04:38:09;16.71;100.51
71254;HTU21D;59019;47.638;18.966;2023-08-01T04:40:36;16.80;99.74
71254;HTU21D;59019;47.638;18.966;2023-08-01T04:43:02;16.87;99.68
71254;HTU21D;59019;47.638;18.966;2023-08-01T04:45:27;17.05;100.77
71254;HTU21D;59019;47.638;18.966;2023-08-01T04:47:53;17.33;100.39
71254;HTU21D;59019;47.638;18.966;2023-08-01T04:50:18;17.64;98.96
71254;HTU21D;59019;47.638;18.966;2023-08-01T04:52:44;18.05;98.80
71254;HTU21D;59019;47.638;18.966;2023-08-01T04:55:09;18.44;98.45
71254;HTU21D;59019;47.638;18.966;2023-08-01T04:57:35;18.77;96.25
71254;HTU21D;59019;47.638;18.966;2023-08-01T05:00:01;19.05;94.47
71254;HTU21D;59019;47.638;18.966;2023-08-01T05:02:26;19.20;93.12
71254;HTU21D;59019;47.638;18.966;2023-08-01T05:04:52;19.24;92.04
71254;HTU21D;59019;47.638;18.966;2023-08-01T05:07:17;19.07;91.37
71254;HTU21D;59019;47.638;18.966;2023-08-01T05:09:43;18.99;91.83
71254;HTU21D;59019;47.638;18.966;2023-08-01T05:12:08;18.92;92.08
71254;HTU21D;59019;47.638;18.966;2023-08-01T05:14:34;18.98;92.72
71254;HTU21D;59019;47.638;18.966;2023-08-01T05:17:00;19.08;93.21
71254;HTU21D;59019;47.638;18.966;2023-08-01T05:19:25;19.26;93.72
71254;HTU21D;59019;47.638;18.966;2023-08-01T05:21:51;19.50;93.40
71254;HTU21D;59019;47.638;18.966;2023-08-01T05:24:16;19.76;92.64
71254;HTU21D;59019;47.638;18.966;2023-08-01T05:26:42;19.88;90.38
71254;HTU21D;59019;47.638;18.966;2023-08-01T05:29:07;19.91;89.61
71254;HTU21D;59019;47.638;18.966;2023-08-01T05:31:33;19.95;90.49
71254;HTU21D;59019;47.638;18.966;2023-08-01T05:33:58;20.18;89.99
71254;HTU21D;59019;47.638;18.966;2023-08-01T05:36:24;20.49;90.18
71254;HTU21D;59019;47.638;18.966;2023-08-01T05:38:49;20.84;89.44
71254;HTU21D;59019;47.638;18.966;2023-08-01T05:41:15;21.30;86.86
71254;HTU21D;59019;47.638;18.966;2023-08-01T05:43:40;21.77;85.47
71254;HTU21D;59019;47.638;18.966;2023-08-01T05:46:06;22.04;82.81
71254;HTU21D;59019;47.638;18.966;2023-08-01T05:48:31;22.24;83.01
71254;HTU21D;59019;47.638;18.966;2023-08-01T05:50:57;22.54;82.21
71254;HTU21D;59019;47.638;18.966;2023-08-01T05:53:23;23.03;80.85
71254;HTU21D;59019;47.638;18.966;2023-08-01T05:55:49;23.34;80.31
71254;HTU21D;59019;47.638;18.966;2023-08-01T05:58:15;23.68;79.58
71254;HTU21D;59019;47.638;18.966;2023-08-01T06:00:41;24.08;78.63
71254;HTU21D;59019;47.638;18.966;2023-08-01T06:03:06;24.38;77.53
71254;HTU21D;59019;47.638;18.966;2023-08-01T06:05:32;24.85;76.58
71254;HTU21D;59019;47.638;18.966;2023-08-01T06:07:57;25.13;73.80
71254;HTU21D;59019;47.638;18.966;2023-08-01T06:10:23;25.23;72.83
71254;HTU21D;59019;47.638;18.966;2023-08-01T06:12:48;25.40;72.54
71254;HTU21D;59019;47.638;18.966;2023-08-01T06:15:14;25.63;71.57
71254;HTU21D;59019;47.638;18.966;2023-08-01T06:17:39;25.64;72.09
71254;HTU21D;59019;47.638;18.966;2023-08-01T06:20:05;25.72;71.26
71254;HTU21D;59019;47.638;18.966;2023-08-01T06:22:31;25.95;70.86
71254;HTU21D;59019;47.638;18.966;2023-08-01T06:24:56;26.22;69.02
71254;HTU21D;59019;47.638;18.966;2023-08-01T06:27:22;26.34;69.26
71254;HTU21D;59019;47.638;18.966;2023-08-01T06:29:47;26.46;69.39
71254;HTU21D;59019;47.638;18.966;2023-08-01T06:32:13;26.73;68.77
71254;HTU21D;59019;47.638;18.966;2023-08-01T06:34:38;26.87;68.97
71254;HTU21D;59019;47.638;18.966;2023-08-01T06:37:04;27.16;68.67
71254;HTU21D;59019;47.638;18.966;2023-08-01T06:39:30;27.47;67.80
71254;HTU21D;59019;47.638;18.966;2023-08-01T06:41:55;27.82;66.67
71254;HTU21D;59019;47.638;18.966;2023-08-01T06:44:21;27.86;63.54
71254;HTU21D;59019;47.638;18.966;2023-08-01T06:46:46;27.82;64.48
71254;HTU21D;59019;47.638;18.966;2023-08-01T06:49:12;28.14;65.54
71254;HTU21D;59019;47.638;18.966;2023-08-01T06:51:37;28.45;64.67
71254;HTU21D;59019;47.638;18.966;2023-08-01T06:54:03;28.62;64.45
71254;HTU21D;59019;47.638;18.966;2023-08-01T06:56:28;28.79;63.68
71254;HTU21D;59019;47.638;18.966;2023-08-01T06:58:54;28.69;62.63
71254;HTU21D;59019;47.638;18.966;2023-08-01T07:01:19;28.76;63.56
71254;HTU21D;59019;47.638;18.966;2023-08-01T07:03:45;29.05;62.50
71254;HTU21D;59019;47.638;18.966;2023-08-01T07:06:11;28.99;62.63
71254;HTU21D;59019;47.638;18.966;2023-08-01T07:08:36;28.92;64.00
71254;HTU21D;59019;47.638;18.966;2023-08-01T07:11:02;29.16;62.62
71254;HTU21D;59019;47.638;18.966;2023-08-01T07:13:28;29.38;63.78
71254;HTU21D;59019;47.638;18.966;2023-08-01T07:15:53;29.61;62.08
71254;HTU21D;59019;47.638;18.966;2023-08-01T07:18:20;29.74;61.31
71254;HTU21D;59019;47.638;18.966;2023-08-01T07:20:46;29.46;59.31
71254;HTU21D;59019;47.638;18.966;2023-08-01T07:23:11;28.64;61.52
71254;HTU21D;59019;47.638;18.966;2023-08-01T07:25:37;28.28;62.90
71254;HTU21D;59019;47.638;18.966;2023-08-01T07:28:02;28.83;63.10
71254;HTU21D;59019;47.638;18.966;2023-08-01T07:30:29;29.37;62.18
71254;HTU21D;59019;47.638;18.966;2023-08-01T07:32:55;29.87;60.48
71254;HTU21D;59019;47.638;18.966;2023-08-01T07:35:21;29.82;59.55
71254;HTU21D;59019;47.638;18.966;2023-08-01T07:37:46;29.35;60.31
71254;HTU21D;59019;47.638;18.966;2023-08-01T07:40:12;29.00;61.24
71254;HTU21D;59019;47.638;18.966;2023-08-01T07:42:37;28.88;61.09
71254;HTU21D;59019;47.638;18.966;2023-08-01T07:45:03;28.86;60.45
71254;HTU21D;59019;47.638;18.966;2023-08-01T07:47:29;28.72;60.70
71254;HTU21D;59019;47.638;18.966;2023-08-01T07:49:55;29.14;61.30
71254;HTU21D;59019;47.638;18.966;2023-08-01T07:52:20;29.86;59.57
71254;HTU21D;59019;47.638;18.966;2023-08-01T07:54:46;29.91;58.15
71254;HTU21D;59019;47.638;18.966;2023-08-01T07:57:12;29.93;58.29
71254;HTU21D;59019;47.638;18.966;2023-08-01T07:59:38;30.11;57.98
71254;HTU21D;59019;47.638;18.966;2023-08-01T08:02:03;30.37;58.28
71254;HTU21D;59019;47.638;18.966;2023-08-01T08:04:30;30.69;57.25
71254;HTU21D;59019;47.638;18.966;2023-08-01T08:06:55;30.52;57.70
71254;HTU21D;59019;47.638;18.966;2023-08-01T08:09:25;30.20;57.09
71254;HTU21D;59019;47.638;18.966;2023-08-01T08:11:52;30.33;57.81
71254;HTU21D;59019;47.638;18.966;2023-08-01T08:14:17;30.24;57.65
71254;HTU21D;59019;47.638;18.966;2023-08-01T08:16:43;30.05;57.35
71254;HTU21D;59019;47.638;18.966;2023-08-01T08:19:08;30.45;57.77
71254;HTU21D;59019;47.638;18.966;2023-08-01T08:21:34;30.65;57.48
71254;HTU21D;59019;47.638;18.966;2023-08-01T08:24:01;31.07;56.24
71254;HTU21D;59019;47.638;18.966;2023-08-01T08:26:26;30.92;56.36
71254;HTU21D;59019;47.638;18.966;2023-08-01T08:28:52;30.85;55.97
71254;HTU21D;59019;47.638;18.966;2023-08-01T08:31:17;30.69;56.70
71254;HTU21D;59019;47.638;18.966;2023-08-01T08:33:43;30.64;56.26
71254;HTU21D;59019;47.638;18.966;2023-08-01T08:36:08;30.76;56.42
71254;HTU21D;59019;47.638;18.966;2023-08-01T08:38:34;30.72;56.58
71254;HTU21D;59019;47.638;18.966;2023-08-01T08:41:33;31.10;56.25
71254;HTU21D;59019;47.638;18.966;2023-08-01T08:43:59;31.90;54.79
71254;HTU21D;59019;47.638;18.966;2023-08-01T08:46:29;32.52;53.39
71254;HTU21D;59019;47.638;18.966;2023-08-01T08:48:57;32.19;52.80
71254;HTU21D;59019;47.638;18.966;2023-08-01T08:51:26;32.60;53.14
71254;HTU21D;59019;47.638;18.966;2023-08-01T08:53:53;32.20;52.45
71254;HTU21D;59019;47.638;18.966;2023-08-01T08:56:20;32.14;53.30
71254;HTU21D;59019;47.638;18.966;2023-08-01T08:58:46;31.22;53.66
71254;HTU21D;59019;47.638;18.966;2023-08-01T09:01:12;30.68;55.53
71254;HTU21D;59019;47.638;18.966;2023-08-01T09:03:38;30.12;55.72
71254;HTU21D;59019;47.638;18.966;2023-08-01T09:06:12;30.19;57.37
71254;HTU21D;59019;47.638;18.966;2023-08-01T09:08:40;30.36;55.93
71254;HTU21D;59019;47.638;18.966;2023-08-01T09:11:06;30.61;55.78
71254;HTU21D;59019;47.638;18.966;2023-08-01T09:13:32;30.64;54.43
71254;HTU21D;59019;47.638;18.966;2023-08-01T09:15:59;30.95;53.92
71254;HTU21D;59019;47.638;18.966;2023-08-01T09:18:26;30.12;54.98
71254;HTU21D;59019;47.638;18.966;2023-08-01T09:20:53;29.08;56.74
71254;HTU21D;59019;47.638;18.966;2023-08-01T09:23:19;28.27;59.35
71254;HTU21D;59019;47.638;18.966;2023-08-01T09:25:45;29.17;59.22
71254;HTU21D;59019;47.638;18.966;2023-08-01T09:28:20;29.41;56.36
71254;HTU21D;59019;47.638;18.966;2023-08-01T09:30:55;29.70;56.56
71254;HTU21D;59019;47.638;18.966;2023-08-01T09:33:24;30.34;56.27
71254;HTU21D;59019;47.638;18.966;2023-08-01T09:35:51;30.77;54.59
71254;HTU21D;59019;47.638;18.966;2023-08-01T09:38:17;30.65;54.14
71254;HTU21D;59019;47.638;18.966;2023-08-01T09:40:44;30.30;54.81
71254;HTU21D;59019;47.638;18.966;2023-08-01T09:43:12;30.64;54.40
71254;HTU21D;59019;47.638;18.966;2023-08-01T09:45:59;30.94;53.81
71254;HTU21D;59019;47.638;18.966;2023-08-01T09:48:27;30.57;53.71
71254;HTU21D;59019;47.638;18.966;2023-08-01T09:53:35;31.15;50.20
71254;HTU21D;59019;47.638;18.966;2023-08-01T09:56:02;31.69;50.02
71254;HTU21D;59019;47.638;18.966;2023-08-01T09:58:32;31.73;48.48
71254;HTU21D;59019;47.638;18.966;2023-08-01T10:00:59;31.94;47.77
71254;HTU21D;59019;47.638;18.966;2023-08-01T10:03:27;31.39;48.95
71254;HTU21D;59019;47.638;18.966;2023-08-01T10:05:55;31.60;49.31
71254;HTU21D;59019;47.638;18.966;2023-08-01T10:08:22;32.10;48.18
71254;HTU21D;59019;47.638;18.966;2023-08-01T10:10:48;32.69;47.49
71254;HTU21D;59019;47.638;18.966;2023-08-01T10:13:14;32.50;47.39
71254;HTU21D;59019;47.638;18.966;2023-08-01T10:15:40;32.25;46.31
71254;HTU21D;59019;47.638;18.966;2023-08-01T10:18:07;32.39;46.71
71254;HTU21D;59019;47.638;18.966;2023-08-01T10:20:35;31.52;48.58
71254;HTU21D;59019;47.638;18.966;2023-08-01T10:23:02;31.50;49.35
71254;HTU21D;59019;47.638;18.966;2023-08-01T10:25:30;31.37;47.99
71254;HTU21D;59019;47.638;18.966;2023-08-01T10:28:00;31.60;47.44
71254;HTU21D;59019;47.638;18.966;2023-08-01T10:30:28;32.37;48.11
71254;HTU21D;59019;47.638;18.966;2023-08-01T10:32:56;32.27;47.92
71254;HTU21D;59019;47.638;18.966;2023-08-01T10:35:37;32.56;47.70
71254;HTU21D;59019;47.638;18.966;2023-08-01T10:38:08;31.95;47.27
71254;HTU21D;59019;47.638;18.966;2023-08-01T10:40:42;31.82;48.48
71254;HTU21D;59019;47.638;18.966;2023-08-01T10:43:24;31.92;48.55
71254;HTU21D;59019;47.638;18.966;2023-08-01T10:46:05;32.07;48.35
71254;HTU21D;59019;47.638;18.966;2023-08-01T10:48:31;31.84;47.34
71254;HTU21D;59019;47.638;18.966;2023-08-01T10:50:57;31.31;47.21
71254;HTU21D;59019;47.638;18.966;2023-08-01T10:53:23;30.97;48.52
71254;HTU21D;59019;47.638;18.966;2023-08-01T10:55:48;30.85;50.49
71254;HTU21D;59019;47.638;18.966;2023-08-01T10:58:14;30.69;48.18
71254;HTU21D;59019;47.638;18.966;2023-08-01T11:00:42;30.42;50.29
71254;HTU21D;59019;47.638;18.966;2023-08-01T11:03:07;30.30;50.05
71254;HTU21D;59019;47.638;18.966;2023-08-01T11:05:33;30.48;50.75
71254;HTU21D;59019;47.638;18.966;2023-08-01T11:08:02;30.57;49.32
71254;HTU21D;59019;47.638;18.966;2023-08-01T11:10:31;30.27;50.71
71254;HTU21D;59019;47.638;18.966;2023-08-01T11:12:58;30.18;50.74
71254;HTU21D;59019;47.638;18.966;2023-08-01T11:15:24;29.93;51.30
71254;HTU21D;59019;47.638;18.966;2023-08-01T11:17:52;30.11;49.56
71254;HTU21D;59019;47.638;18.966;2023-08-01T11:20:19;30.21;51.14
71254;HTU21D;59019;47.638;18.966;2023-08-01T11:22:58;30.13;51.04
71254;HTU21D;59019;47.638;18.966;2023-08-01T11:25:42;29.88;52.14
71254;HTU21D;59019;47.638;18.966;2023-08-01T11:28:16;29.95;52.66
71254;HTU21D;59019;47.638;18.966;2023-08-01T11:30:42;30.13;52.46
71254;HTU21D;59019;47.638;18.966;2023-08-01T11:33:22;30.33;51.14
71254;HTU21D;59019;47.638;18.966;2023-08-01T11:35:54;30.57;50.17
71254;HTU21D;59019;47.638;18.966;2023-08-01T11:38:27;30.71;48.70
71254;HTU21D;59019;47.638;18.966;2023-08-01T11:40:59;30.86;49.07
71254;HTU21D;59019;47.638;18.966;2023-08-01T11:43:24;31.25;48.53
71254;HTU21D;59019;47.638;18.966;2023-08-01T11:45:55;31.40;48.52
71254;HTU21D;59019;47.638;18.966;2023-08-01T11:48:24;31.27;48.12
71254;HTU21D;59019;47.638;18.966;2023-08-01T11:50:58;30.80;49.00
71254;HTU21D;59019;47.638;18.966;2023-08-01T11:53:23;30.55;49.59
71254;HTU21D;59019;47.638;18.966;2023-08-01T11:55:50;30.51;50.05
71254;HTU21D;59019;47.638;18.966;2023-08-01T11:58:33;30.62;49.57
71254;HTU21D;59019;47.638;18.966;2023-08-01T12:01:07;30.64;50.54
71254;HTU21D;59019;47.638;18.966;2023-08-01T12:03:47;30.32;49.32
71254;HTU21D;59019;47.638;18.966;2023-08-01T12:06:13;30.15;50.15
71254;HTU21D;59019;47.638;18.966;2023-08-01T12:08:40;29.95;50.53
71254;HTU21D;59019;47.638;18.966;2023-08-01T12:13:45;30.41;50.80
71254;HTU21D;59019;47.638;18.966;2023-08-01T12:16:11;30.69;50.85
71254;HTU21D;59019;47.638;18.966;2023-08-01T12:18:39;31.02;50.87
71254;HTU21D;59019;47.638;18.966;2023-08-01T12:21:04;31.01;49.90
71254;HTU21D;59019;47.638;18.966;2023-08-01T12:23:31;31.13;49.65
71254;HTU21D;59019;47.638;18.966;2023-08-01T12:25:57;30.76;49.05
71254;HTU21D;59019;47.638;18.966;2023-08-01T12:28:22;30.71;50.85
71254;HTU21D;59019;47.638;18.966;2023-08-01T12:30:47;31.01;51.05
71254;HTU21D;59019;47.638;18.966;2023-08-01T12:33:15;30.75;49.86
71254;HTU21D;59019;47.638;18.966;2023-08-01T12:35:41;30.63;50.82
71254;HTU21D;59019;47.638;18.966;2023-08-01T12:38:07;30.66;51.24
71254;HTU21D;59019;47.638;18.966;2023-08-01T12:40:34;30.79;50.53
71254;HTU21D;59019;47.638;18.966;2023-08-01T12:43:00;30.90;52.49
71254;HTU21D;59019;47.638;18.966;2023-08-01T12:45:26;30.99;50.35
71254;HTU21D;59019;47.638;18.966;2023-08-01T12:47:53;30.72;50.66
71254;HTU21D;59019;47.638;18.966;2023-08-01T12:50:20;30.60;50.24
71254;HTU21D;59019;47.638;18.966;2023-08-01T12:52:45;30.49;51.06
71254;HTU21D;59019;47.638;18.966;2023-08-01T12:55:11;30.37;50.75
71254;HTU21D;59019;47.638;18.966;2023-08-01T12:57:36;30.35;50.44
71254;HTU21D;59019;47.638;18.966;2023-08-01T13:00:02;29.78;53.94
71254;HTU21D;59019;47.638;18.966;2023-08-01T13:02:28;30.09;51.41
71254;HTU21D;59019;47.638;18.966;2023-08-01T13:04:53;30.10;51.72
71254;HTU21D;59019;47.638;18.966;2023-08-01T13:07:19;30.21;52.03
71254;HTU21D;59019;47.638;18.966;2023-08-01T13:09:46;30.11;53.26
71254;HTU21D;59019;47.638;18.966;2023-08-01T13:12:11;30.22;51.34
71254;HTU21D;59019;47.638;18.966;2023-08-01T13:14:37;30.31;52.21
71254;HTU21D;59019;47.638;18.966;2023-08-01T13:17:03;30.50;52.57
71254;HTU21D;59019;47.638;18.966;2023-08-01T13:19:29;30.22;52.00
71254;HTU21D;59019;47.638;18.966;2023-08-01T13:21:54;30.19;52.64
71254;HTU21D;59019;47.638;18.966;2023-08-01T13:24:20;30.48;53.01
71254;HTU21D;59019;47.638;18.966;2023-08-01T13:26:46;30.76;52.40
71254;HTU21D;59019;47.638;18.966;2023-08-01T13:29:11;30.92;51.43
71254;HTU21D;59019;47.638;18.966;2023-08-01T13:31:36;30.99;52.43
71254;HTU21D;59019;47.638;18.966;2023-08-01T13:34:02;31.05;51.66
71254;HTU21D;59019;47.638;18.966;2023-08-01T13:36:27;31.04;51.30
71254;HTU21D;59019;47.638;18.966;2023-08-01T13:38:53;31.11;51.84
71254;HTU21D;59019;47.638;18.966;2023-08-01T13:41:19;31.14;52.06
71254;HTU21D;59019;47.638;18.966;2023-08-01T13:43:45;31.15;52.46
71254;HTU21D;59019;47.638;18.966;2023-08-01T13:46:15;31.12;51.52
71254;HTU21D;59019;47.638;18.966;2023-08-01T13:48:42;31.05;51.32
71254;HTU21D;59019;47.638;18.966;2023-08-01T13:51:08;31.12;50.34
71254;HTU21D;59019;47.638;18.966;2023-08-01T13:53:33;30.74;50.62
71254;HTU21D;59019;47.638;18.966;2023-08-01T13:56:04;30.22;51.40
71254;HTU21D;59019;47.638;18.966;2023-08-01T13:58:33;30.47;51.71
71254;HTU21D;59019;47.638;18.966;2023-08-01T14:01:05;30.66;51.31
71254;HTU21D;59019;47.638;18.966;2023-08-01T14:03:32;30.87;50.47
71254;HTU21D;59019;47.638;18.966;2023-08-01T14:06:16;30.81;51.26
71254;HTU21D;59019;47.638;18.966;2023-08-01T14:08:42;30.79;50.95
71254;HTU21D;59019;47.638;18.966;2023-08-01T14:11:09;30.74;49.86
71254;HTU21D;59019;47.638;18.966;2023-08-01T14:13:35;30.82;50.38
71254;HTU21D;59019;47.638;18.966;2023-08-01T14:16:01;31.24;51.88
71254;HTU21D;59019;47.638;18.966;2023-08-01T14:18:30;31.72;49.39
71254;HTU21D;59019;47.638;18.966;2023-08-01T14:20:56;31.96;49.14
71254;HTU21D;59019;47.638;18.966;2023-08-01T14:23:22;32.17;47.77
71254;HTU21D;59019;47.638;18.966;2023-08-01T14:25:49;32.42;47.25
71254;HTU21D;59019;47.638;18.966;2023-08-01T14:28:15;32.28;47.71
71254;HTU21D;59019;47.638;18.966;2023-08-01T14:30:40;31.94;46.53
71254;HTU21D;59019;47.638;18.966;2023-08-01T14:33:09;31.61;48.58
71254;HTU21D;59019;47.638;18.966;2023-08-01T14:35:36;31.73;48.90
71254;HTU21D;59019;47.638;18.966;2023-08-01T14:38:03;31.69;48.91
71254;HTU21D;59019;47.638;18.966;2023-08-01T14:40:30;31.44;49.65
71254;HTU21D;59019;47.638;18.966;2023-08-01T14:42:56;31.22;51.00
71254;HTU21D;59019;47.638;18.966;2023-08-01T14:45:22;31.27;50.08
71254;HTU21D;59019;47.638;18.966;2023-08-01T14:47:49;31.22;50.47
71254;HTU21D;59019;47.638;18.966;2023-08-01T14:50:15;30.89;51.50
71254;HTU21D;59019;47.638;18.966;2023-08-01T14:52:41;30.61;51.28
71254;HTU21D;59019;47.638;18.966;2023-08-01T14:55:07;30.63;51.93
71254;HTU21D;59019;47.638;18.966;2023-08-01T14:57:34;30.70;53.92
71254;HTU21D;59019;47.638;18.966;2023-08-01T14:59:59;30.77;55.81